This is the latest recevied weather packets stored in our database for station/object F4IEI-10. If no packets are shown the sender has not sent any weather packets the latest 10 day(s).
| Time | Temp. | Humidity | Pressure | Rain* | Wind** | Luminosity | Snow |
|---|---|---|---|---|---|---|---|
| 1778193830 | 4.44° C | 80% | 1017.2 hPa | - | - | - | - |
| 1778192930 | 5° C | 87% | 1017.2 hPa | - | - | - | - |
| 1778192029 | 5° C | 84% | 1017.1 hPa | - | - | - | - |
| 1778191129 | 5° C | 93% | 1017.1 hPa | - | - | - | - |
| 1778190229 | 5.56° C | 100% | 1017.1 hPa | - | - | - | - |
| 1778189329 | 6.11° C | 82% | 1017.2 hPa | - | - | - | - |
| 1778188429 | 6.11° C | 84% | 1017.1 hPa | - | - | - | - |
| 1778187529 | 6.67° C | 78% | 1017 hPa | - | - | - | - |
| 1778186629 | 6.67° C | 78% | 1017 hPa | - | - | - | - |
| 1778185729 | 6.67° C | 81% | 1016.9 hPa | - | - | - | - |
| 1778184829 | 6.67° C | 76% | 1016.8 hPa | - | - | - | - |
| 1778183929 | 7.78° C | 87% | 1016.7 hPa | - | - | - | - |
| 1778183029 | 10° C | 84% | 1016.3 hPa | - | - | - | - |
| 1778182129 | 10.56° C | 80% | 1016.2 hPa | - | - | - | - |
| 1778181229 | 11.11° C | 76% | 1016.1 hPa | - | - | - | - |
| 1778180329 | 12.22° C | 73% | 1016 hPa | - | - | - | - |
| 1778179429 | 13.89° C | 70% | 1015.9 hPa | - | - | - | - |
| 1778178529 | 14.44° C | 69% | 1015.6 hPa | - | - | - | - |
| 1778177629 | 15° C | 67% | 1015.6 hPa | - | - | - | - |
| 1778176729 | 15.56° C | 66% | 1015.6 hPa | - | - | - | - |
| 1778175829 | 16.11° C | 64% | 1015.6 hPa | - | - | - | - |
| 1778174929 | 16.67° C | 65% | 1015.6 hPa | - | - | - | - |
| 1778174029 | 16.67° C | 68% | 1015.6 hPa | - | - | - | - |
| 1778173129 | 15.56° C | 67% | 1015.7 hPa | - | - | - | - |
| 1778172229 | 15.56° C | 65% | 1015.8 hPa | - | - | - | - |
* Rain since midnight (hover to see other rain measurements)
** Current wind speed in m/s (hover to see current wind gust speed)